Terminal Aerodrome Forecast
Issued by NWS

Current Version | Previous Version | Text Only | Print | Product List | Glossary Off
Versions: 1 2 3 4 5 6 7 8 9 10 11 12 13 14 15 16 17 18

000
FTUS41 KPBZ 231128
TAFMGW
TAF
KMGW 231128Z 2312/2412 19004KT P6SM BKN250
     FM231800 26005KT P6SM SCT050
     FM241000 36008KT P6SM BKN025=

USA.gov is the U.S. government's official web portal to all federal, state and local government web resources and services.